עמוד ראשי
METAR-TAF:

METAR-TAF

שדות תעופה :

Sohag, מצרים

קו רוחב: 26-20-25N, קו אורך: 31-44-20E, גובה: 70מטר

תצפית מזג אוויר נוכחית

הדו"ח נערך לפני 1 שעות ו 5דקות, בשעה 20:00 UTC
רוח 8קשר מכיוון צפון-מערב
טמפרטורת 33 צלסיוס
לחות 16%
לחץ 1003 hPa
ראות 10 קילומטר או יותר
ללא עננים שבסיסם נמוך מ 5000 רגל או קומולונימבוס

METAR: HESG 252000Z 32008KT CAVOK 33/04 Q1003 NOSIG

זמן: 23:05 (21:05 UTC)

תחזית

הדו"ח נערך לפני 4 שעות ו 5דקות, בשעה 17:00 UTC
תחזית בתוקף מ 25 ב 18 UTC עד 26 ב 24 UTC
רוח 8קשר מכיוון מערב
ראות 10 קילומטר או יותר
ללא עננים שבסיסם נמוך מ 5000 רגל או קומולונימבוס

TAF: HESG 251700Z 2518/2624 28008KT CAVOK

תצפיות ותחזיות מזג אוויר לגבי יותר מ- 4,000 שדות תעופה ברחבי העולם. דוחות METAR ו- TAF.

התחנות הזמינות מסומנות בנקודות צהובות ואדומות על גבי המפה.

העבר את העכבר לנקודה הצבעונית על מנת לראות את שם התחנה.

לאחר מכן, לחץ כדי לראות את תוכן ואת תחזיות מזג האוויר.

כדי לשנות את המפה: לחץ על הכפתורים הירוקים עם הפלוס השחור כדי להתקרב; על הכפתור הירוק עם המקף כדי להתרחק; או בחיצים הירוקים למפות סמוכות.


METAR-TAF: